Time;durP1;ratioP1;P1;durP2;ratioP2;P2;SDS_P1;SDS_P2;PMS_P1;PMS_P2;Temp;Humidity;BMP_temperature;BMP_pressure;BME280_temperature;BME280_humidity;BME280_pressure;Samples;Min_cycle;Max_cycle;Signal;HPM_P1;HPM_P2
2022/01/11 00:00:25;;;;;;;15.25;7.55;;;2.20;99.90;;;;;;5020024;28;20105;-47
2022/01/11 00:02:52;;;;;;;13.77;8.10;;;2.20;99.90;;;;;;5017562;28;20034;-47
2022/01/11 00:05:26;;;;;;;14.50;7.35;;;2.20;99.90;;;;;;5017806;28;20081;-47
2022/01/11 00:07:53;;;;;;;12.85;7.40;;;2.30;99.90;;;;;;5018971;28;20123;-47
2022/01/11 00:10:37;;;;;;;15.98;7.55;;;2.20;99.90;;;;;;5021898;28;20037;-47
2022/01/11 00:13:03;;;;;;;10.75;7.30;;;2.20;99.90;;;;;;5018963;28;20034;-47
2022/01/11 00:15:29;;;;;;;15.63;8.32;;;2.30;99.90;;;;;;5017434;28;20025;-47
2022/01/11 00:17:57;;;;;;;13.43;7.07;;;2.20;99.90;;;;;;5018282;28;20036;-47
2022/01/11 00:20:24;;;;;;;12.38;7.07;;;2.30;99.90;;;;;;5019269;28;20109;-47
2022/01/11 00:25:36;;;;;;;15.73;7.85;;;2.20;99.90;;;;;;5017657;28;20032;-47
2022/01/11 00:28:03;;;;;;;16.70;7.50;;;2.20;99.90;;;;;;5018558;28;20781;-47
2022/01/11 00:30:35;;;;;;;17.80;8.00;;;2.20;99.90;;;;;;5020376;28;20396;-47
2022/01/11 00:33:05;;;;;;;17.83;7.70;;;2.10;99.90;;;;;;5019663;28;20051;-47
2022/01/11 00:35:42;;;;;;;17.52;8.57;;;2.10;99.90;;;;;;5015839;28;20041;-47
2022/01/11 00:38:16;;;;;;;14.35;7.40;;;2.10;99.90;;;;;;5014906;28;20038;-47
2022/01/11 00:40:55;;;;;;;17.98;9.77;;;2.10;99.90;;;;;;5020017;28;20025;-46
2022/01/11 00:43:23;;;;;;;18.25;8.48;;;2.10;99.90;;;;;;5014156;28;20033;-47
2022/01/11 00:45:50;;;;;;;16.67;8.05;;;2.10;99.90;;;;;;5015632;28;20057;-46
2022/01/11 00:48:16;;;;;;;20.25;7.78;;;2.20;99.90;;;;;;5018488;28;20052;-47
2022/01/11 00:50:42;;;;;;;16.23;7.85;;;2.10;99.90;;;;;;5021724;28;20552;-47
2022/01/11 00:53:08;;;;;;;18.63;8.48;;;2.20;99.90;;;;;;5016004;28;20073;-47
2022/01/11 00:55:34;;;;;;;18.55;9.13;;;2.20;99.90;;;;;;5015532;28;20033;-47
2022/01/11 00:58:02;;;;;;;18.67;8.00;;;2.10;99.90;;;;;;5016982;28;20033;-48
2022/01/11 01:00:29;;;;;;;17.13;9.35;;;2.10;99.90;;;;;;5014712;28;20029;-47
2022/01/11 01:02:55;;;;;;;18.58;8.48;;;2.10;99.90;;;;;;5018439;28;20034;-46
2022/01/11 01:05:21;;;;;;;18.85;9.30;;;2.20;99.90;;;;;;5018348;28;20045;-47
2022/01/11 01:07:48;;;;;;;17.55;7.80;;;2.20;99.90;;;;;;5016207;28;20537;-47
2022/01/11 01:10:29;;;;;;;16.77;8.07;;;2.20;99.90;;;;;;5015241;28;20072;-47
2022/01/11 01:12:56;;;;;;;18.48;9.07;;;2.20;99.90;;;;;;5021827;28;20029;-47
2022/01/11 01:15:24;;;;;;;18.27;9.68;;;2.20;99.90;;;;;;5022305;28;20038;-47
2022/01/11 01:17:50;;;;;;;18.90;9.52;;;2.20;99.90;;;;;;5017892;28;20565;-47
2022/01/11 01:20:16;;;;;;;17.83;8.77;;;2.20;99.90;;;;;;5015529;28;20018;-47
2022/01/11 01:22:41;;;;;;;16.13;9.07;;;2.10;99.90;;;;;;5015180;28;20049;-47
2022/01/11 01:25:08;;;;;;;19.50;9.20;;;2.10;99.90;;;;;;5014283;28;20030;-47
2022/01/11 01:27:34;;;;;;;21.02;9.68;;;2.10;99.90;;;;;;5012052;28;20532;-47
2022/01/11 01:30:00;;;;;;;20.83;9.60;;;2.10;99.90;;;;;;5014858;28;20057;-48
2022/01/11 01:32:26;;;;;;;18.30;8.88;;;2.00;99.90;;;;;;5014108;28;20128;-47
2022/01/11 01:34:54;;;;;;;19.98;9.98;;;2.00;99.90;;;;;;5014354;28;20060;-47
2022/01/11 01:37:20;;;;;;;17.42;9.35;;;2.00;99.90;;;;;;5014357;28;20453;-47
2022/01/11 01:39:45;;;;;;;22.77;8.88;;;2.00;99.90;;;;;;5011703;28;20030;-47
2022/01/11 01:42:12;;;;;;;17.90;9.30;;;2.00;99.90;;;;;;5012926;28;20040;-47
2022/01/11 01:44:40;;;;;;;24.33;8.85;;;2.00;99.90;;;;;;5016653;28;20148;-47
2022/01/11 01:47:08;;;;;;;19.83;10.95;;;2.00;99.90;;;;;;5011434;28;20033;-47
2022/01/11 01:49:36;;;;;;;16.55;8.85;;;2.00;99.90;;;;;;5020541;28;20049;-47
2022/01/11 01:52:02;;;;;;;18.23;8.93;;;2.00;99.90;;;;;;5018954;28;20059;-47
2022/01/11 01:54:27;;;;;;;24.45;9.70;;;2.00;99.90;;;;;;5016987;28;20045;-47
2022/01/11 01:56:53;;;;;;;26.02;9.48;;;2.00;99.90;;;;;;5022533;28;20564;-47
2022/01/11 01:59:20;;;;;;;20.15;10.15;;;2.00;99.90;;;;;;5016572;28;20475;-47
2022/01/11 02:01:47;;;;;;;15.02;8.60;;;2.00;99.90;;;;;;5019102;28;20034;-47
2022/01/11 02:04:16;;;;;;;20.80;9.38;;;2.00;99.90;;;;;;5020181;28;20048;-47
2022/01/11 02:06:42;;;;;;;21.17;9.95;;;2.00;99.90;;;;;;5014234;28;20141;-47
2022/01/11 02:09:10;;;;;;;17.02;10.05;;;2.00;99.90;;;;;;5019142;28;20038;-47
2022/01/11 02:11:35;;;;;;;18.50;8.73;;;2.00;99.90;;;;;;5016405;28;20058;-47
2022/01/11 02:14:01;;;;;;;23.00;10.00;;;2.00;99.90;;;;;;5018124;28;20189;-47
2022/01/11 02:16:27;;;;;;;20.15;9.23;;;2.00;99.90;;;;;;5016936;28;20457;-47
2022/01/11 02:18:54;;;;;;;17.48;9.90;;;1.90;99.90;;;;;;5015840;28;20043;-47
2022/01/11 02:21:20;;;;;;;18.55;9.90;;;1.90;99.90;;;;;;5021113;28;20057;-47
2022/01/11 02:23:46;;;;;;;20.05;10.75;;;1.90;99.90;;;;;;5021626;28;20064;-47
2022/01/11 02:26:12;;;;;;;20.33;9.43;;;1.80;99.90;;;;;;5018776;28;20025;-47
2022/01/11 02:28:39;;;;;;;20.08;9.93;;;1.80;99.90;;;;;;5018065;28;20037;-48
2022/01/11 02:31:12;;;;;;;24.23;10.05;;;1.80;99.90;;;;;;5013001;28;20033;-47
2022/01/11 02:33:44;;;;;;;17.58;8.30;;;1.80;99.90;;;;;;5016078;28;20033;-47
2022/01/11 02:36:18;;;;;;;25.77;10.55;;;1.80;99.90;;;;;;5017619;28;20038;-47
2022/01/11 02:38:46;;;;;;;21.77;10.02;;;1.90;99.90;;;;;;5020015;28;20520;-47
2022/01/11 02:41:11;;;;;;;20.85;10.02;;;1.90;99.90;;;;;;5020634;28;20037;-47
2022/01/11 02:43:46;;;;;;;17.50;10.35;;;1.90;99.90;;;;;;5015416;28;20022;-47
2022/01/11 02:46:12;;;;;;;18.90;9.18;;;1.90;99.90;;;;;;5020232;28;20018;-47
2022/01/11 02:48:38;;;;;;;15.00;9.43;;;1.90;99.90;;;;;;5016764;28;20033;-47
2022/01/11 02:51:05;;;;;;;18.05;9.63;;;1.90;99.90;;;;;;5014076;28;20044;-47
2022/01/11 02:53:30;;;;;;;21.15;8.85;;;1.90;99.90;;;;;;5017554;28;20029;-47
2022/01/11 02:55:57;;;;;;;23.40;9.93;;;1.90;99.90;;;;;;5016407;28;20116;-47
2022/01/11 02:58:23;;;;;;;19.10;9.00;;;1.90;99.90;;;;;;5015187;28;20030;-47
2022/01/11 03:00:49;;;;;;;15.50;8.63;;;2.00;99.90;;;;;;5016352;28;20096;-47
2022/01/11 03:03:20;;;;;;;14.95;8.73;;;2.00;99.90;;;;;;5013818;28;20036;-48
2022/01/11 03:05:48;;;;;;;25.50;9.98;;;2.00;99.90;;;;;;5018758;28;20406;-47
2022/01/11 03:08:15;;;;;;;16.33;8.48;;;2.00;99.90;;;;;;5019691;28;20099;-47
2022/01/11 03:10:41;;;;;;;22.42;9.55;;;2.10;99.90;;;;;;5020844;28;20038;-47
2022/01/11 03:13:09;;;;;;;17.58;8.82;;;2.10;99.90;;;;;;5015784;28;20029;-47
2022/01/11 03:15:36;;;;;;;17.35;9.15;;;2.10;99.90;;;;;;5017937;28;20045;-47
2022/01/11 03:18:04;;;;;;;16.70;9.38;;;2.10;99.90;;;;;;5022660;28;20041;-47
2022/01/11 03:20:30;;;;;;;19.83;9.33;;;2.10;99.90;;;;;;5016953;28;20036;-47
2022/01/11 03:22:55;;;;;;;19.00;8.23;;;2.00;99.90;;;;;;5017020;28;20050;-47
2022/01/11 03:25:21;;;;;;;20.25;9.20;;;2.00;99.90;;;;;;5016300;28;20029;-47
2022/01/11 03:27:47;;;;;;;19.58;9.38;;;2.00;99.90;;;;;;5015252;28;20089;-47
2022/01/11 03:30:13;;;;;;;14.50;8.23;;;2.00;99.90;;;;;;5017006;28;20026;-47
2022/01/11 03:32:38;;;;;;;19.95;9.52;;;2.10;99.90;;;;;;5018090;28;20037;-47
2022/01/11 03:35:06;;;;;;;14.40;8.80;;;2.10;99.90;;;;;;5017118;28;20568;-47
2022/01/11 03:37:32;;;;;;;16.95;8.15;;;2.00;99.90;;;;;;5017417;28;20069;-47
2022/01/11 03:39:58;;;;;;;14.77;8.18;;;2.00;99.90;;;;;;5013988;28;20748;-47
2022/01/11 03:42:23;;;;;;;14.93;8.77;;;2.10;99.90;;;;;;5017217;28;20029;-47
2022/01/11 03:44:50;;;;;;;18.90;8.48;;;2.10;99.90;;;;;;5018132;28;20453;-47
2022/01/11 03:47:17;;;;;;;16.42;8.45;;;2.10;99.90;;;;;;5015095;28;20037;-46
2022/01/11 03:49:42;;;;;;;18.25;9.35;;;2.00;99.90;;;;;;5021412;28;20079;-47
2022/01/11 03:52:08;;;;;;;19.80;9.25;;;2.10;99.90;;;;;;5016290;28;20034;-47
2022/01/11 03:54:50;;;;;;;20.25;9.73;;;2.10;99.90;;;;;;5018243;28;20128;-47
2022/01/11 03:57:16;;;;;;;14.35;9.25;;;2.10;99.90;;;;;;5016051;28;20033;-47
2022/01/11 03:59:42;;;;;;;19.35;9.07;;;2.00;99.90;;;;;;5010922;28;20426;-47
2022/01/11 04:02:07;;;;;;;19.27;9.00;;;2.00;99.90;;;;;;5015730;28;20454;-47
2022/01/11 04:04:33;;;;;;;20.05;10.02;;;2.00;99.90;;;;;;5017339;28;20156;-47
2022/01/11 04:07:00;;;;;;;15.25;7.53;;;2.10;99.90;;;;;;5016408;28;20651;-47
2022/01/11 04:09:26;;;;;;;16.02;7.97;;;2.10;99.90;;;;;;5017202;28;20479;-47
2022/01/11 04:11:52;;;;;;;14.20;8.25;;;2.10;99.90;;;;;;5015740;28;20037;-47
2022/01/11 04:14:17;;;;;;;16.95;8.73;;;2.00;99.90;;;;;;5020993;28;20033;-47
2022/01/11 04:16:43;;;;;;;16.35;9.15;;;2.10;99.90;;;;;;5020026;28;20531;-47
2022/01/11 04:19:09;;;;;;;15.82;8.88;;;2.10;99.90;;;;;;5014187;28;20025;-47
2022/01/11 04:21:34;;;;;;;15.65;8.57;;;2.10;99.90;;;;;;5019781;28;20021;-47
2022/01/11 04:24:00;;;;;;;16.42;8.73;;;2.10;99.90;;;;;;5016733;28;20033;-47
2022/01/11 04:26:25;;;;;;;15.85;8.13;;;2.10;99.90;;;;;;5018003;28;20049;-47
2022/01/11 04:28:51;;;;;;;19.83;8.77;;;2.10;99.90;;;;;;5017418;28;20060;-47
2022/01/11 04:31:17;;;;;;;19.05;9.80;;;2.00;99.90;;;;;;5012357;28;20140;-46
2022/01/11 04:33:43;;;;;;;16.88;8.68;;;2.00;99.90;;;;;;5016926;28;20112;-47
2022/01/11 04:36:10;;;;;;;22.33;8.40;;;2.00;99.90;;;;;;5017640;28;20450;-47
2022/01/11 04:38:36;;;;;;;14.98;9.00;;;2.00;99.90;;;;;;5016348;28;20056;-47
2022/01/11 04:41:02;;;;;;;17.85;8.90;;;2.00;99.90;;;;;;5020262;28;20033;-47
2022/01/11 04:43:30;;;;;;;15.90;7.60;;;2.00;99.90;;;;;;5015369;28;20461;-47
2022/01/11 04:45:56;;;;;;;16.55;8.73;;;2.00;99.90;;;;;;5010459;28;20053;-47
2022/01/11 04:48:22;;;;;;;17.75;8.38;;;2.00;99.90;;;;;;5013761;28;20251;-47
2022/01/11 04:50:48;;;;;;;21.27;8.73;;;2.00;99.90;;;;;;5008440;28;20033;-47
2022/01/11 04:53:14;;;;;;;16.20;8.93;;;2.00;99.90;;;;;;5013903;28;20088;-47
2022/01/11 04:55:40;;;;;;;20.00;9.68;;;2.00;99.90;;;;;;5017927;28;20033;-47
2022/01/11 04:58:06;;;;;;;21.20;10.10;;;1.90;99.90;;;;;;5010509;28;20045;-47
2022/01/11 05:00:31;;;;;;;18.77;9.32;;;1.90;99.90;;;;;;5014217;28;20042;-47
2022/01/11 05:02:59;;;;;;;22.17;10.05;;;2.00;99.90;;;;;;5014652;28;20026;-47
2022/01/11 05:05:27;;;;;;;18.05;8.90;;;1.90;99.90;;;;;;5016023;28;20491;-47
2022/01/11 05:07:53;;;;;;;;;;;1.90;99.90;;;;;;5016604;28;20266;-47
2022/01/11 05:10:19;;;;;;;18.70;9.70;;;1.90;99.90;;;;;;5013731;28;19913;-47
2022/01/11 05:12:45;;;;;;;24.63;10.80;;;1.90;99.90;;;;;;5013608;28;20486;-47
2022/01/11 05:15:12;;;;;;;21.67;10.82;;;1.80;99.90;;;;;;5013394;28;20025;-47
2022/01/11 05:17:38;;;;;;;20.67;10.65;;;1.80;99.90;;;;;;5011401;28;20037;-47
2022/01/11 05:20:06;;;;;;;18.02;9.93;;;1.90;99.90;;;;;;5014148;28;20041;-47
2022/01/11 05:22:32;;;;;;;16.40;8.23;;;1.90;99.90;;;;;;5017114;28;20025;-47
2022/01/11 05:24:57;;;;;;;20.50;8.98;;;1.90;99.90;;;;;;5018001;28;20044;-47
2022/01/11 05:27:23;;;;;;;15.75;8.07;;;1.90;99.90;;;;;;5018010;28;20040;-47
2022/01/11 05:29:49;;;;;;;19.50;8.77;;;1.90;99.90;;;;;;5020798;28;20021;-47
2022/01/11 05:32:15;;;;;;;18.13;8.50;;;1.90;99.90;;;;;;5015400;28;20091;-47
2022/01/11 05:34:40;;;;;;;17.90;8.95;;;1.90;99.90;;;;;;5021549;28;20034;-47
2022/01/11 05:37:06;;;;;;;19.10;8.88;;;1.90;99.90;;;;;;5018897;28;20049;-47
2022/01/11 05:39:32;;;;;;;19.45;9.27;;;1.90;99.90;;;;;;5021953;28;20140;-47
2022/01/11 05:41:59;;;;;;;18.27;8.73;;;2.00;99.90;;;;;;5019776;28;20044;-47
2022/01/11 05:44:25;;;;;;;18.88;10.07;;;2.00;99.90;;;;;;5020395;28;20505;-46
2022/01/11 05:46:51;;;;;;;19.83;10.70;;;2.10;99.90;;;;;;5020393;28;20506;-47
2022/01/11 05:49:17;;;;;;;23.13;9.23;;;2.10;99.90;;;;;;5020522;28;20034;-47
2022/01/11 05:51:42;;;;;;;15.70;7.88;;;2.00;99.90;;;;;;5017711;28;20612;-47
2022/01/11 05:54:08;;;;;;;16.85;8.30;;;2.00;99.90;;;;;;5019460;28;20037;-47
2022/01/11 05:56:34;;;;;;;18.40;8.63;;;2.00;99.90;;;;;;5020162;28;20040;-47
2022/01/11 05:59:00;;;;;;;15.80;7.72;;;2.00;99.90;;;;;;5020483;28;20757;-47
2022/01/11 06:01:25;;;;;;;14.65;8.15;;;2.00;99.90;;;;;;5020002;28;20056;-47
2022/01/11 06:03:51;;;;;;;17.40;9.48;;;2.00;99.90;;;;;;5017153;28;20083;-47
2022/01/11 06:06:16;;;;;;;17.60;9.45;;;2.00;99.90;;;;;;5021755;28;20067;-47
2022/01/11 06:08:42;;;;;;;15.52;8.57;;;2.00;99.90;;;;;;5016944;28;20534;-47
2022/01/11 06:11:09;;;;;;;18.40;8.63;;;2.10;99.90;;;;;;5015315;28;20036;-47
2022/01/11 06:13:34;;;;;;;16.90;8.90;;;2.00;99.90;;;;;;5016704;28;20079;-47
2022/01/11 06:16:00;;;;;;;19.48;9.00;;;2.10;99.90;;;;;;5018379;28;20037;-47
2022/01/11 06:18:26;;;;;;;18.23;9.15;;;2.10;99.90;;;;;;5021839;28;20033;-47
2022/01/11 06:20:51;;;;;;;21.00;9.18;;;2.10;99.90;;;;;;5022561;28;20025;-47
2022/01/11 06:23:17;;;;;;;16.42;8.07;;;2.00;99.90;;;;;;5020008;28;20556;-47
2022/01/11 06:25:43;;;;;;;19.27;9.38;;;2.00;99.90;;;;;;5021411;28;20036;-47
2022/01/11 06:28:08;;;;;;;15.70;8.02;;;2.00;99.90;;;;;;5025104;28;20025;-47
2022/01/11 06:30:34;;;;;;;15.93;8.70;;;1.90;99.90;;;;;;5015453;28;20040;-47
2022/01/11 06:32:59;;;;;;;15.55;8.52;;;1.90;99.90;;;;;;5018702;28;20037;-47
2022/01/11 06:35:25;;;;;;;14.30;7.78;;;1.90;99.90;;;;;;5015797;28;20034;-47
2022/01/11 06:37:51;;;;;;;14.68;7.93;;;2.00;99.90;;;;;;5016750;28;20207;-47
2022/01/11 06:40:20;;;;;;;18.40;8.18;;;2.00;99.90;;;;;;5021254;28;20025;-47
2022/01/11 06:42:47;;;;;;;19.65;8.30;;;1.90;99.90;;;;;;5016089;28;20436;-47
2022/01/11 06:45:13;;;;;;;13.93;9.20;;;1.90;99.90;;;;;;5019546;28;20029;-47
2022/01/11 06:47:40;;;;;;;16.88;9.05;;;1.80;99.90;;;;;;5016745;28;20110;-47
2022/01/11 06:50:06;;;;;;;15.45;8.23;;;1.70;99.90;;;;;;5014955;28;20430;-47
2022/01/11 06:52:31;;;;;;;22.80;10.13;;;1.80;99.90;;;;;;5015396;28;20029;-47
2022/01/11 06:54:57;;;;;;;19.52;10.77;;;1.70;99.90;;;;;;5013380;28;20379;-47
2022/01/11 06:57:24;;;;;;;23.40;10.43;;;1.80;99.90;;;;;;5018593;28;20104;-47
2022/01/11 06:59:50;;;;;;;16.98;8.20;;;1.90;99.90;;;;;;5020394;28;20040;-47
2022/01/11 07:02:16;;;;;;;25.73;11.77;;;1.90;99.90;;;;;;5016001;28;20399;-47
2022/01/11 07:04:41;;;;;;;20.88;9.93;;;1.90;99.90;;;;;;5019976;28;20025;-47
2022/01/11 07:07:07;;;;;;;27.10;9.93;;;1.90;99.90;;;;;;5021713;28;20041;-47
2022/01/11 07:09:34;;;;;;;15.10;8.35;;;1.90;99.90;;;;;;5018109;28;20056;-47
2022/01/11 07:12:01;;;;;;;19.13;8.85;;;1.90;99.90;;;;;;5019518;28;20041;-48
2022/01/11 07:14:26;;;;;;;16.25;9.82;;;1.90;99.90;;;;;;5016948;28;20424;-47
2022/01/11 07:16:52;;;;;;;17.88;8.65;;;1.80;99.90;;;;;;5014431;28;20111;-47
2022/01/11 07:19:19;;;;;;;18.55;9.93;;;1.80;99.90;;;;;;5020612;28;20096;-47
2022/01/11 07:21:46;;;;;;;15.30;8.55;;;1.90;99.90;;;;;;5022598;28;20040;-47
2022/01/11 07:24:13;;;;;;;18.40;9.77;;;1.90;99.90;;;;;;5020910;28;20033;-47
2022/01/11 07:26:38;;;;;;;18.63;10.13;;;1.90;99.90;;;;;;5019375;28;20039;-47
2022/01/11 07:29:05;;;;;;;19.52;8.55;;;1.90;99.90;;;;;;5019479;28;20033;-46
2022/01/11 07:31:31;;;;;;;18.10;9.38;;;1.90;99.90;;;;;;5020289;28;21286;-47
2022/01/11 07:33:57;;;;;;;16.38;7.90;;;1.90;99.90;;;;;;5021410;28;20063;-47
2022/01/11 07:36:23;;;;;;;19.40;9.13;;;1.80;99.90;;;;;;5016992;28;20100;-47
2022/01/11 07:38:51;;;;;;;16.08;8.32;;;1.70;99.90;;;;;;5023673;28;20033;-47
2022/01/11 07:41:17;;;;;;;17.40;8.60;;;1.70;99.90;;;;;;5028960;28;20025;-47
2022/01/11 07:43:42;;;;;;;21.30;9.15;;;1.80;99.90;;;;;;5015834;28;20488;-47
2022/01/11 07:46:08;;;;;;;18.13;8.52;;;1.80;99.90;;;;;;5022678;28;20042;-48
2022/01/11 07:48:34;;;;;;;20.38;7.75;;;1.80;99.90;;;;;;5017281;28;20095;-47
2022/01/11 07:50:59;;;;;;;16.17;8.57;;;1.80;99.90;;;;;;5014994;28;20022;-47
2022/01/11 07:53:25;;;;;;;19.23;8.82;;;1.80;99.90;;;;;;5017600;28;20405;-47
2022/01/11 07:55:50;;;;;;;12.73;7.30;;;1.70;99.90;;;;;;5016824;28;20037;-47
2022/01/11 07:58:16;;;;;;;21.40;8.18;;;1.70;99.90;;;;;;5019655;28;20037;-47
2022/01/11 08:00:42;;;;;;;14.27;7.40;;;1.70;99.90;;;;;;5016466;28;20657;-47
2022/01/11 08:03:08;;;;;;;17.30;8.73;;;1.70;99.90;;;;;;5016967;28;20576;-47
2022/01/11 08:05:34;;;;;;;13.23;6.53;;;1.70;99.90;;;;;;5019081;28;20041;-47
2022/01/11 08:07:59;;;;;;;13.95;7.40;;;1.70;99.90;;;;;;5019648;28;20048;-47
2022/01/11 08:10:25;;;;;;;15.07;7.55;;;1.80;99.90;;;;;;5015671;28;20037;-47
2022/01/11 08:12:51;;;;;;;14.77;7.75;;;1.80;99.90;;;;;;5012678;28;20565;-47
2022/01/11 08:15:16;;;;;;;13.32;6.85;;;1.80;99.90;;;;;;5018611;28;20083;-47
2022/01/11 08:17:42;;;;;;;15.73;8.05;;;1.70;99.90;;;;;;5019463;28;20131;-47
2022/01/11 08:20:08;;;;;;;12.77;7.20;;;1.70;99.90;;;;;;5017067;28;20025;-47
2022/01/11 08:22:34;;;;;;;15.95;7.88;;;1.70;99.90;;;;;;5015648;28;20018;-47
2022/01/11 08:25:00;;;;;;;12.50;6.35;;;1.70;99.90;;;;;;5018518;28;20037;-47
2022/01/11 08:27:26;;;;;;;14.60;8.75;;;1.70;99.90;;;;;;5020650;28;20025;-47
2022/01/11 08:29:51;;;;;;;13.48;8.57;;;1.70;99.90;;;;;;5018651;28;20072;-47
2022/01/11 08:32:17;;;;;;;20.67;9.50;;;1.80;99.90;;;;;;5020474;28;20045;-47
2022/01/11 08:34:44;;;;;;;15.73;8.10;;;1.80;99.90;;;;;;5015745;28;20053;-47
2022/01/11 08:37:10;;;;;;;13.38;7.75;;;1.90;99.90;;;;;;5017853;28;20958;-47
2022/01/11 08:39:36;;;;;;;13.68;8.30;;;1.90;99.90;;;;;;5021427;28;20132;-47
2022/01/11 08:42:02;;;;;;;14.98;9.10;;;1.90;99.90;;;;;;5014744;28;20055;-47
2022/01/11 08:44:28;;;;;;;17.50;8.65;;;1.90;99.90;;;;;;5017263;28;20632;-47
2022/01/11 08:46:54;;;;;;;18.45;8.35;;;1.90;99.90;;;;;;5014475;28;20029;-47
2022/01/11 08:49:21;;;;;;;16.60;8.25;;;1.90;99.90;;;;;;5014488;28;20153;-47
2022/01/11 08:51:47;;;;;;;18.13;9.27;;;1.90;99.90;;;;;;5019509;28;20546;-47
2022/01/11 08:54:13;;;;;;;15.27;7.63;;;1.90;99.90;;;;;;5020336;28;20025;-47
2022/01/11 08:56:40;;;;;;;15.05;7.38;;;2.00;99.90;;;;;;5020242;28;20121;-47
2022/01/11 08:59:06;;;;;;;14.77;7.35;;;2.00;99.90;;;;;;5015834;28;20021;-47
2022/01/11 09:01:34;;;;;;;16.92;7.85;;;2.00;99.90;;;;;;5018227;28;20040;-47
2022/01/11 09:04:00;;;;;;;13.07;6.82;;;2.00;99.90;;;;;;5015934;28;20030;-48
2022/01/11 09:06:26;;;;;;;15.55;7.53;;;2.10;99.90;;;;;;5014719;28;20092;-47
2022/01/11 09:08:52;;;;;;;13.23;6.50;;;2.10;99.90;;;;;;5014366;28;21377;-47
2022/01/11 09:11:17;;;;;;;12.05;6.53;;;2.20;99.90;;;;;;5018732;28;20661;-47
2022/01/11 09:13:43;;;;;;;14.27;6.65;;;2.20;99.90;;;;;;5015012;28;20605;-47
2022/01/11 09:16:11;;;;;;;14.55;7.07;;;2.20;99.90;;;;;;5013166;28;20042;-48
2022/01/11 09:18:37;;;;;;;9.38;5.93;;;2.20;99.90;;;;;;5023011;28;20021;-47
2022/01/11 09:21:04;;;;;;;13.80;6.60;;;2.20;99.90;;;;;;5011696;28;20037;-47
2022/01/11 09:23:31;;;;;;;13.60;6.78;;;2.20;99.90;;;;;;5015511;28;20088;-47
2022/01/11 09:25:57;;;;;;;14.73;7.00;;;2.20;99.90;;;;;;5016842;28;20346;-47
2022/01/11 09:28:23;;;;;;;13.82;7.28;;;2.30;99.90;;;;;;5017318;28;20360;-47
2022/01/11 09:30:51;;;;;;;17.83;7.57;;;2.30;99.90;;;;;;5013650;28;20061;-47
2022/01/11 09:33:17;;;;;;;14.23;7.53;;;2.40;99.90;;;;;;5013846;28;20112;-47
2022/01/11 09:35:43;;;;;;;13.82;7.40;;;2.40;99.90;;;;;;5014259;28;20040;-47
2022/01/11 09:38:08;;;;;;;11.55;6.07;;;2.40;99.90;;;;;;5014731;28;20471;-47
2022/01/11 09:40:34;;;;;;;11.98;6.93;;;2.50;99.90;;;;;;5014365;28;20558;-47
2022/01/11 09:43:00;;;;;;;13.63;7.70;;;2.50;99.90;;;;;;5016275;28;20033;-47
2022/01/11 09:45:26;;;;;;;11.00;6.13;;;2.60;99.90;;;;;;5013012;28;20069;-47
2022/01/11 09:47:52;;;;;;;12.77;5.95;;;2.60;99.90;;;;;;5011785;28;20113;-47
2022/01/11 09:50:19;;;;;;;12.10;6.25;;;2.70;99.90;;;;;;5011907;28;20029;-47
2022/01/11 09:52:45;;;;;;;12.77;6.70;;;2.80;99.90;;;;;;5017663;28;20131;-47
2022/01/11 09:55:13;;;;;;;11.90;5.60;;;2.80;99.90;;;;;;5016342;28;20034;-47
2022/01/11 09:57:39;;;;;;;10.30;6.10;;;2.80;99.90;;;;;;5018178;28;20026;-48
2022/01/11 10:00:08;;;;;;;13.00;5.93;;;2.80;99.90;;;;;;5015204;28;20037;-47
2022/01/11 10:02:34;;;;;;;14.80;5.68;;;2.70;99.90;;;;;;5018012;28;20038;-47
2022/01/11 10:05:05;;;;;;;9.07;4.88;;;2.80;99.90;;;;;;5010803;28;20075;-48
2022/01/11 10:07:40;;;;;;;11.48;6.22;;;2.80;99.90;;;;;;5015881;28;20390;-47
2022/01/11 10:10:15;;;;;;;10.15;4.80;;;2.90;99.90;;;;;;5022811;28;20475;-47
2022/01/11 10:12:48;;;;;;;8.43;4.68;;;2.90;99.90;;;;;;5017749;28;20136;-47
2022/01/11 10:15:15;;;;;;;8.85;4.85;;;3.00;99.90;;;;;;5021305;28;20502;-47
2022/01/11 10:17:43;;;;;;;9.05;6.10;;;3.00;99.90;;;;;;5020702;28;20030;-47
2022/01/11 10:20:11;;;;;;;9.73;5.45;;;3.00;99.90;;;;;;5016375;28;20041;-47
2022/01/11 10:22:56;;;;;;;8.70;3.88;;;3.00;99.90;;;;;;5017549;28;20029;-47
2022/01/11 10:25:23;;;;;;;7.40;4.28;;;2.90;99.90;;;;;;5015162;28;20029;-47
2022/01/11 10:28:00;;;;;;;6.93;4.85;;;3.00;99.90;;;;;;5017392;28;20032;-47
2022/01/11 10:30:26;;;;;;;8.82;4.97;;;3.10;99.90;;;;;;5019131;28;20030;-47
2022/01/11 10:32:55;;;;;;;6.10;4.13;;;3.00;99.90;;;;;;5017186;28;20497;-48
2022/01/11 10:35:27;;;;;;;5.93;4.22;;;3.10;99.90;;;;;;5019554;28;20029;-47
2022/01/11 10:37:54;;;;;;;9.00;4.85;;;3.00;99.90;;;;;;5020268;28;20041;-47
2022/01/11 10:40:24;;;;;;;10.70;5.10;;;3.10;99.90;;;;;;5019462;28;20033;-47
2022/01/11 10:42:51;;;;;;;8.30;4.95;;;3.10;99.90;;;;;;5019425;28;20033;-47
2022/01/11 10:45:17;;;;;;;8.97;5.70;;;3.20;99.90;;;;;;5018408;28;20026;-47
2022/01/11 10:47:51;;;;;;;8.18;5.43;;;3.20;99.90;;;;;;5021176;28;20837;-47
2022/01/11 10:50:30;;;;;;;9.75;4.57;;;3.20;99.90;;;;;;5018244;28;20032;-48
2022/01/11 10:52:57;;;;;;;18.52;6.57;;;3.20;99.90;;;;;;5019799;28;20030;-47
2022/01/11 10:55:26;;;;;;;10.10;5.30;;;3.20;99.90;;;;;;5019319;28;20080;-47
2022/01/11 10:57:58;;;;;;;12.10;6.00;;;3.20;99.90;;;;;;5016798;28;20061;-47
2022/01/11 11:00:31;;;;;;;9.57;4.70;;;3.20;99.90;;;;;;5015813;28;20187;-47
2022/01/11 11:03:06;;;;;;;9.50;5.13;;;3.20;99.90;;;;;;5016717;28;20110;-47
2022/01/11 11:05:34;;;;;;;7.90;5.10;;;3.20;99.90;;;;;;5020894;28;20032;-47
2022/01/11 11:08:00;;;;;;;;;;;3.20;99.90;;;;;;5016825;28;20623;-47
2022/01/11 11:10:57;;;;;;;7.65;5.07;;;3.30;99.90;;;;;;5015863;28;19924;-47
2022/01/11 11:13:36;;;;;;;8.93;5.18;;;3.20;99.90;;;;;;5011333;28;20064;-47
2022/01/11 11:16:17;;;;;;;8.40;4.50;;;3.30;99.90;;;;;;5019450;28;20667;-47
2022/01/11 11:18:57;;;;;;;7.35;4.65;;;3.30;99.90;;;;;;5019462;28;20037;-47
2022/01/11 11:21:35;;;;;;;9.48;5.63;;;3.30;99.90;;;;;;5013931;28;20064;-47
2022/01/11 11:24:02;;;;;;;;;;;3.30;99.90;;;;;;5018606;28;20049;-47
2022/01/11 11:26:32;;;;;;;11.02;5.97;;;3.40;99.90;;;;;;5018641;28;19917;-47
2022/01/11 11:28:58;;;;;;;8.23;4.90;;;3.50;99.90;;;;;;5019776;28;20117;-47
2022/01/11 11:31:25;;;;;;;9.02;4.65;;;3.50;99.90;;;;;;5018008;28;20040;-47
2022/01/11 11:33:51;;;;;;;10.55;5.22;;;3.30;99.90;;;;;;5011085;28;20026;-47
2022/01/11 11:36:18;;;;;;;8.63;4.90;;;3.40;99.90;;;;;;5013620;28;20376;-48
2022/01/11 11:39:11;;;;;;;10.30;5.47;;;3.50;99.90;;;;;;5013246;28;20554;-47
2022/01/11 11:41:46;;;;;;;7.22;4.88;;;3.50;99.90;;;;;;5016133;28;20350;-47
2022/01/11 11:44:13;;;;;;;9.10;5.95;;;3.40;99.90;;;;;;5011002;28;20071;-47
2022/01/11 11:46:51;;;;;;;7.85;4.65;;;3.40;99.90;;;;;;5017450;28;20426;-47
2022/01/11 11:49:43;;;;;;;6.78;4.53;;;3.40;99.90;;;;;;5010160;28;20021;-47
2022/01/11 11:52:34;;;;;;;8.07;4.80;;;3.30;99.90;;;;;;5012988;28;20030;-47
2022/01/11 11:55:15;;;;;;;6.93;4.80;;;3.30;99.90;;;;;;5014648;28;20036;-47
2022/01/11 11:57:41;;;;;;;7.60;4.43;;;3.30;99.90;;;;;;5012590;28;20032;-47
2022/01/11 12:00:11;;;;;;;9.20;5.10;;;3.30;99.90;;;;;;5015037;28;20025;-48
2022/01/11 12:02:49;;;;;;;7.13;4.60;;;3.20;99.90;;;;;;5011359;28;20034;-47
2022/01/11 12:05:39;;;;;;;9.07;5.28;;;3.20;99.90;;;;;;5013107;28;20061;-47
2022/01/11 12:08:23;;;;;;;6.32;4.22;;;3.10;99.90;;;;;;5018843;28;20052;-47
2022/01/11 12:10:57;;;;;;;9.07;4.32;;;3.10;99.90;;;;;;5016236;28;20525;-47
2022/01/11 12:13:48;;;;;;;6.10;3.58;;;3.10;99.90;;;;;;5014958;28;20029;-47
2022/01/11 12:16:26;;;;;;;5.68;4.18;;;3.10;99.90;;;;;;5011433;28;20711;-47
2022/01/11 12:18:54;;;;;;;2.95;2.38;;;3.10;99.90;;;;;;5011661;28;20956;-48
2022/01/11 12:21:21;;;;;;;5.22;3.15;;;3.10;99.90;;;;;;5012746;28;20168;-47
2022/01/11 12:23:51;;;;;;;6.20;3.63;;;3.10;99.90;;;;;;5011615;28;20036;-47
2022/01/11 12:26:37;;;;;;;7.25;4.03;;;3.10;99.90;;;;;;5010919;28;20033;-47
2022/01/11 12:29:08;;;;;;;4.93;2.65;;;3.10;99.90;;;;;;5018802;28;20068;-47
2022/01/11 12:32:06;;;;;;;2.67;2.47;;;3.00;99.40;;;;;;5013776;28;20037;-47
2022/01/11 12:34:46;;;;;;;6.70;2.90;;;3.00;99.90;;;;;;5017311;28;20040;-47
2022/01/11 12:37:26;;;;;;;4.10;2.42;;;3.10;99.90;;;;;;5016580;28;20137;-47
2022/01/11 12:40:13;;;;;;;3.72;2.35;;;3.10;99.90;;;;;;5015711;28;20486;-47
2022/01/11 12:43:00;;;;;;;3.88;2.95;;;3.00;98.80;;;;;;5013661;28;20080;-47
2022/01/11 12:45:53;;;;;;;3.22;2.42;;;3.00;99.90;;;;;;5015855;28;20033;-47
2022/01/11 12:48:42;;;;;;;3.97;2.25;;;2.90;99.40;;;;;;5014962;28;20108;-47
2022/01/11 12:51:09;;;;;;;7.45;2.90;;;2.90;99.90;;;;;;5013379;28;20073;-47
2022/01/11 12:53:35;;;;;;;4.80;2.88;;;3.00;97.60;;;;;;5017310;28;20025;-47
2022/01/11 12:56:01;;;;;;;3.63;2.60;;;3.00;99.30;;;;;;5017469;28;20628;-47